Time;durP1;ratioP1;P1;durP2;ratioP2;P2;SDS_P1;SDS_P2;PMS_P1;PMS_P2;Temp;Humidity;BMP_temperature;BMP_pressure;BME280_temperature;BME280_humidity;BME280_pressure;Samples;Min_cycle;Max_cycle;Signal;HPM_P1;HPM_P2
2022/03/24 00:00:23;;;;;;;37.50;12.70;;;;;;;-0.30;71.79;99918.69;5910850;24;20036;-68
2022/03/24 00:02:49;;;;;;;43.53;12.93;;;;;;;-0.31;71.91;99911.66;5909945;24;20032;-68
2022/03/24 00:05:15;;;;;;;37.85;13.10;;;;;;;-0.35;73.33;99915.41;5932897;24;20024;-66
2022/03/24 00:07:41;;;;;;;45.85;11.57;;;;;;;-0.38;74.02;99904.94;5909390;24;20020;-69
2022/03/24 00:10:08;;;;;;;52.90;13.90;;;;;;;-0.28;74.84;99894.72;5932176;24;20392;-66
2022/03/24 00:12:34;;;;;;;43.35;13.10;;;;;;;-0.33;72.69;99892.31;5910206;24;20031;-67
2022/03/24 00:15:04;;;;;;;50.72;13.82;;;;;;;-0.44;72.12;99897.25;5980397;24;20103;-69
2022/03/24 00:17:31;;;;;;;40.33;14.50;;;;;;;-0.49;72.24;99896.63;5957796;24;20523;-68
2022/03/24 00:19:58;;;;;;;47.80;12.85;;;;;;;-0.51;72.76;99883.44;5934192;24;20039;-68
2022/03/24 00:22:24;;;;;;;46.25;12.73;;;;;;;-0.58;72.79;99897.09;5910547;24;20028;-69
2022/03/24 00:24:53;;;;;;;47.55;13.50;;;;;;;-0.57;72.10;99881.09;5933039;24;20093;-67
2022/03/24 00:27:19;;;;;;;47.50;13.00;;;;;;;-0.57;73.51;99896.16;5982097;23;20034;-67
2022/03/24 00:29:45;;;;;;;42.25;13.07;;;;;;;-0.64;73.88;99882.31;5934160;24;20032;-67
2022/03/24 00:32:12;;;;;;;31.58;12.50;;;;;;;-0.53;71.86;99876.47;5932987;24;20047;-69
2022/03/24 00:34:38;;;;;;;42.15;13.52;;;;;;;-0.59;72.87;99880.28;5955786;24;20459;-69
2022/03/24 00:37:09;;;;;;;41.08;11.63;;;;;;;-0.63;73.41;99867.25;5933008;24;20344;-68
2022/03/24 00:39:35;;;;;;;36.97;13.55;;;;;;;-0.59;73.10;99860.84;5933243;24;20032;-68
2022/03/24 00:42:11;;;;;;;44.63;12.85;;;;;;;-0.75;73.12;99874.88;5933106;24;20105;-69
2022/03/24 00:44:45;;;;;;;42.78;11.40;;;;;;;-0.76;71.95;99856.38;5955305;24;20121;-69
2022/03/24 00:47:13;;;;;;;42.40;12.32;;;;;;;-0.77;73.06;99863.50;5910280;24;20055;-69
2022/03/24 00:49:40;;;;;;;41.88;12.45;;;;;;;-0.84;72.28;99864.72;5933217;24;20059;-69
2022/03/24 00:52:08;;;;;;;53.40;13.10;;;;;;;-0.86;72.70;99855.97;5955971;24;20032;-67
2022/03/24 00:54:34;;;;;;;40.22;11.68;;;;;;;-0.73;74.32;99851.78;5932949;24;20028;-67
2022/03/24 00:57:01;;;;;;;45.83;13.68;;;;;;;-0.69;74.60;99856.94;5933000;24;20075;-68
2022/03/24 00:59:28;;;;;;;38.72;12.07;;;;;;;-0.80;74.53;99857.47;5910158;24;20047;-69
2022/03/24 01:01:55;;;;;;;38.63;13.00;;;;;;;-0.97;75.16;99852.97;5933202;24;20034;-69
2022/03/24 01:04:21;;;;;;;45.85;13.18;;;;;;;-1.03;74.33;99847.94;5981163;24;20112;-69
2022/03/24 01:06:47;;;;;;;49.08;13.85;;;;;;;-0.96;74.46;99849.38;5932928;24;20028;-69
2022/03/24 01:09:13;;;;;;;40.58;12.85;;;;;;;-0.92;76.32;99850.94;5887449;24;20087;-69
2022/03/24 01:11:40;;;;;;;56.35;13.70;;;;;;;-0.93;76.54;99851.88;5955860;24;20044;-67
2022/03/24 01:14:07;;;;;;;39.10;13.90;;;;;;;-0.90;76.61;99851.75;5932692;24;20628;-69
2022/03/24 01:16:34;;;;;;;40.55;12.88;;;;;;;-0.99;77.08;99839.78;5955505;24;20111;-68
2022/03/24 01:19:00;;;;;;;42.63;12.15;;;;;;;-0.97;77.56;99832.59;5955823;24;20116;-68
2022/03/24 01:21:26;;;;;;;35.22;12.90;;;;;;;-0.94;77.70;99836.06;5955715;24;20040;-69
2022/03/24 01:23:53;;;;;;;39.40;12.68;;;;;;;-0.98;78.21;99830.03;5909552;24;20024;-68
2022/03/24 01:26:18;;;;;;;41.60;13.07;;;;;;;-1.05;78.20;99828.59;5922883;23;20116;-68
2022/03/24 01:28:44;;;;;;;48.53;13.13;;;;;;;-1.02;78.08;99829.31;5983456;23;20070;-67
2022/03/24 01:31:10;;;;;;;45.05;12.07;;;;;;;-1.09;77.25;99827.88;5937359;23;20031;-69
2022/03/24 01:33:40;;;;;;;47.17;12.95;;;;;;;-1.22;76.87;99822.28;5960163;23;20023;-67
2022/03/24 01:36:08;;;;;;;43.63;13.02;;;;;;;-1.11;78.73;99828.88;5960677;23;20023;-67
2022/03/24 01:38:35;;;;;;;45.28;12.50;;;;;;;-1.12;78.68;99819.22;5959666;23;20336;-67
2022/03/24 01:41:02;;;;;;;41.85;12.35;;;;;;;-1.11;77.20;99827.09;5960197;23;20115;-68
2022/03/24 01:43:29;;;;;;;42.47;11.82;;;;;;;-1.15;77.97;99816.72;5937353;23;20035;-68
2022/03/24 01:45:55;;;;;;;52.78;13.48;;;;;;;-1.18;78.54;99809.75;5983482;23;20023;-67
2022/03/24 01:48:21;;;;;;;41.88;11.98;;;;;;;-1.25;78.88;99822.44;5960141;23;20059;-69
2022/03/24 01:50:47;;;;;;;46.67;12.88;;;;;;;-1.30;78.49;99808.56;5937314;23;20451;-67
2022/03/24 01:53:13;;;;;;;51.63;12.63;;;;;;;-1.35;76.70;99810.56;5936932;23;20054;-67
2022/03/24 01:55:41;;;;;;;41.13;11.82;;;;;;;-1.31;75.98;99819.25;5937701;23;20573;-69
2022/03/24 01:58:08;;;;;;;37.70;11.85;;;;;;;-1.42;76.16;99818.88;5937139;23;20100;-69
2022/03/24 02:00:35;;;;;;;41.38;13.02;;;;;;;-1.49;76.08;99797.09;5959599;23;20362;-68
2022/03/24 02:03:06;;;;;;;46.08;12.48;;;;;;;-1.31;76.47;99806.84;5959940;23;20026;-69
2022/03/24 02:05:32;;;;;;;50.28;13.38;;;;;;;-1.32;79.24;99793.63;5960320;23;20039;-68
2022/03/24 02:08:03;;;;;;;44.92;13.45;;;;;;;-1.15;79.25;99812.25;5937476;23;20024;-69
2022/03/24 02:10:31;;;;;;;38.88;12.32;;;;;;;-1.33;77.39;99813.13;5983523;23;20529;-68
2022/03/24 02:12:57;;;;;;;37.13;11.68;;;;;;;-1.30;78.21;99808.56;5938976;23;20023;-67
2022/03/24 02:15:27;;;;;;;39.90;12.82;;;;;;;-1.43;76.14;99812.69;5987654;23;20028;-67
2022/03/24 02:17:54;;;;;;;40.95;13.60;;;;;;;-1.40;76.12;99807.25;5961347;23;20034;-68
2022/03/24 02:20:22;;;;;;;45.30;13.07;;;;;;;-1.47;76.70;99808.47;5961225;23;20031;-69
2022/03/24 02:22:51;;;;;;;42.75;13.35;;;;;;;-1.48;76.80;99801.47;5937962;23;20027;-68
2022/03/24 02:25:17;;;;;;;37.83;13.65;;;;;;;-1.51;77.30;99798.94;5960109;23;20020;-70
2022/03/24 02:27:49;;;;;;;58.78;15.43;;;;;;;-1.77;78.85;99766.56;5959591;23;20514;-68
2022/03/24 02:30:15;;;;;;;51.42;15.15;;;;;;;-1.60;78.48;99794.09;5938452;23;20114;-67
2022/03/24 02:32:41;;;;;;;50.67;15.15;;;;;;;-1.60;78.96;99802.03;5937163;23;20031;-68
2022/03/24 02:35:09;;;;;;;50.53;14.18;;;;;;;-1.62;78.47;99795.94;5936124;23;20027;-68
2022/03/24 02:37:35;;;;;;;45.08;12.75;;;;;;;-1.64;77.89;99789.88;5982138;23;20024;-68
2022/03/24 02:40:00;;;;;;;49.47;13.43;;;;;;;-1.66;78.44;99783.75;5982730;23;20254;-68
2022/03/24 02:42:29;;;;;;;42.80;12.45;;;;;;;-1.59;81.09;99790.50;5959182;23;20031;-69
2022/03/24 02:44:58;;;;;;;44.40;12.45;;;;;;;-1.54;80.95;99788.47;5959087;23;20115;-70
2022/03/24 02:47:25;;;;;;;43.25;12.98;;;;;;;-1.51;80.98;99793.66;5913262;23;20058;-69
2022/03/24 02:49:54;;;;;;;41.80;12.40;;;;;;;-1.57;80.92;99785.97;5959554;23;20128;-68
2022/03/24 02:52:19;;;;;;;38.33;12.77;;;;;;;-1.58;81.43;99784.25;5982456;23;20505;-69
2022/03/24 02:54:46;;;;;;;43.40;13.50;;;;;;;-1.60;80.88;99778.19;6007915;23;20101;-69
2022/03/24 02:57:12;;;;;;;39.90;11.48;;;;;;;-1.58;79.46;99776.31;5935799;23;20370;-69
2022/03/24 02:59:38;;;;;;;32.72;11.73;;;;;;;-1.59;79.30;99774.59;5981800;23;20020;-69
2022/03/24 03:02:22;;;;;;;48.38;12.02;;;;;;;-1.53;78.47;99776.97;5913220;23;20051;-69
2022/03/24 03:04:51;;;;;;;37.65;11.95;;;;;;;-1.66;79.45;99779.31;5958851;23;20078;-69
2022/03/24 03:07:17;;;;;;;45.97;13.20;;;;;;;-1.73;79.75;99768.13;5959728;23;20359;-68
2022/03/24 03:09:43;;;;;;;33.40;11.77;;;;;;;-1.75;79.53;99775.31;5960191;23;20032;-69
2022/03/24 03:12:10;;;;;;;41.47;12.75;;;;;;;-1.75;80.58;99770.00;5959393;23;20043;-69
2022/03/24 03:14:36;;;;;;;42.13;12.40;;;;;;;-1.73;80.40;99773.44;5983053;23;20439;-69
2022/03/24 03:17:02;;;;;;;40.45;11.60;;;;;;;-1.81;81.60;99774.72;5982407;23;20032;-70
2022/03/24 03:19:29;;;;;;;35.10;11.80;;;;;;;-1.80;81.00;99766.69;5936995;23;20095;-67
2022/03/24 03:21:56;;;;;;;40.50;12.15;;;;;;;-1.77;81.45;99771.88;5959701;23;20442;-68
2022/03/24 03:24:22;;;;;;;31.38;11.27;;;;;;;-1.75;79.68;99770.00;5959217;23;20406;-69
2022/03/24 03:26:49;;;;;;;41.72;11.32;;;;;;;-1.68;79.83;99764.41;5960168;23;20035;-70
2022/03/24 03:29:15;;;;;;;27.63;11.23;;;;;;;-1.71;79.80;99771.59;5914510;23;20054;-69
2022/03/24 03:31:40;;;;;;;35.28;11.68;;;;;;;-1.74;79.86;99754.97;5959119;23;20379;-69
2022/03/24 03:34:08;;;;;;;31.73;11.27;;;;;;;-1.75;79.43;99758.56;5959717;23;20294;-69
2022/03/24 03:36:37;;;;;;;28.83;11.43;;;;;;;-1.88;79.32;99760.03;5961150;23;20078;-70
2022/03/24 03:39:05;;;;;;;40.08;13.07;;;;;;;-1.95;80.56;99730.31;5936706;23;20032;-70
2022/03/24 03:41:31;;;;;;;36.63;11.30;;;;;;;-1.82;79.84;99752.69;5913133;23;20171;-69
2022/03/24 03:43:58;;;;;;;38.20;10.77;;;;;;;-1.72;80.12;99759.28;5959570;23;20687;-69
2022/03/24 03:46:25;;;;;;;33.10;10.98;;;;;;;-1.57;78.57;99754.16;5913383;23;20027;-69
2022/03/24 03:48:51;;;;;;;31.00;9.77;;;;;;;-1.60;78.21;99754.34;5937898;23;20505;-69
2022/03/24 03:51:17;;;;;;;28.15;9.30;;;;;;;-1.56;78.41;99735.56;5961180;23;20463;-69
2022/03/24 03:53:43;;;;;;;44.03;13.40;;;;;;;-1.43;78.30;99749.06;5938417;23;20110;-69
2022/03/24 03:56:09;;;;;;;39.00;10.55;;;;;;;-1.38;77.21;99727.66;5959337;23;20411;-69
2022/03/24 03:58:36;;;;;;;30.00;9.73;;;;;;;-1.28;76.36;99743.06;5959164;23;20104;-69
2022/03/24 04:01:03;;;;;;;36.38;9.68;;;;;;;-1.24;75.56;99736.66;5937932;23;20480;-70
2022/03/24 04:03:33;;;;;;;27.58;9.63;;;;;;;-1.27;77.26;99744.75;5936069;23;20056;-68
2022/03/24 04:06:06;;;;;;;38.53;10.43;;;;;;;-1.32;77.06;99740.59;5983002;23;20084;-69
2022/03/24 04:08:32;;;;;;;33.75;10.52;;;;;;;-1.42;75.72;99734.91;5937989;23;20027;-69
2022/03/24 04:10:58;;;;;;;34.25;10.82;;;;;;;-1.36;76.68;99731.94;5983133;23;20024;-69
2022/03/24 04:13:24;;;;;;;34.10;11.52;;;;;;;-1.20;76.08;99725.91;5959971;23;20027;-70
2022/03/24 04:15:51;;;;;;;45.60;13.30;;;;;;;-1.13;76.56;99737.91;5960112;23;20458;-69
2022/03/24 04:18:18;;;;;;;37.17;11.70;;;;;;;-1.05;75.85;99727.78;5959066;23;20090;-69
2022/03/24 04:20:44;;;;;;;42.25;12.23;;;;;;;-0.93;75.24;99727.16;5982497;23;20433;-69
2022/03/24 04:23:11;;;;;;;28.80;11.07;;;;;;;-0.87;74.58;99721.56;5913834;23;20046;-69
2022/03/24 04:25:38;;;;;;;39.85;12.88;;;;;;;-0.69;74.16;99729.53;5959594;23;20114;-69
2022/03/24 04:28:05;;;;;;;46.58;14.98;;;;;;;-0.64;75.15;99727.50;5982170;23;20028;-70
2022/03/24 04:30:32;;;;;;;31.42;11.85;;;;;;;-0.51;73.95;99728.59;5958919;23;20528;-69
2022/03/24 04:32:58;;;;;;;37.88;12.32;;;;;;;-0.47;74.08;99729.28;5983247;23;20031;-69
2022/03/24 04:35:25;;;;;;;30.50;12.20;;;;;;;-0.37;72.90;99727.84;5960944;23;20031;-70
2022/03/24 04:37:52;;;;;;;43.92;13.45;;;;;;;-0.38;72.00;99715.50;5960114;23;20031;-69
2022/03/24 04:40:19;;;;;;;38.20;13.45;;;;;;;-0.25;73.13;99720.09;5936316;23;20087;-70
2022/03/24 04:42:49;;;;;;;30.25;10.82;;;;;;;0.07;68.59;99720.16;5937830;23;20047;-69
2022/03/24 04:45:16;;;;;;;;;;;;;;;0.24;68.52;99714.78;5961579;23;20027;-69
2022/03/24 04:47:42;;;;;;;38.30;12.20;;;;;;;0.36;70.18;99718.56;5983176;23;19923;-69
2022/03/24 04:50:08;;;;;;;33.10;10.50;;;;;;;0.45;68.33;99720.72;5936008;23;20092;-69
2022/03/24 04:52:34;;;;;;;44.55;12.90;;;;;;;0.53;68.10;99719.44;5937011;23;20034;-70
2022/03/24 04:55:01;;;;;;;31.63;11.50;;;;;;;0.59;68.03;99696.00;5983387;23;20076;-70
2022/03/24 04:57:29;;;;;;;35.55;11.88;;;;;;;0.83;66.63;99709.69;5983513;23;20024;-69
2022/03/24 04:59:57;;;;;;;36.30;12.23;;;;;;;1.01;67.09;99718.41;5960561;23;20088;-70
2022/03/24 05:02:25;;;;;;;32.72;10.32;;;;;;;1.16;63.73;99717.50;5984475;23;20114;-70
2022/03/24 05:04:52;;;;;;;31.50;10.65;;;;;;;1.26;60.62;99711.66;5983688;23;20104;-70
2022/03/24 05:07:19;;;;;;;39.70;12.15;;;;;;;1.40;66.17;99720.53;5938639;23;20023;-70
2022/03/24 05:09:50;;;;;;;33.40;11.60;;;;;;;1.49;60.56;99707.63;5937621;23;20104;-70
2022/03/24 05:12:16;;;;;;;51.13;12.90;;;;;;;1.78;59.54;99713.84;5985080;23;20028;-69
2022/03/24 05:14:43;;;;;;;40.97;11.63;;;;;;;1.82;58.31;99705.56;5981180;23;20446;-74
2022/03/24 05:17:08;;;;;;;41.50;12.38;;;;;;;2.03;56.01;99716.69;5931075;23;20027;-71
2022/03/24 05:19:35;;;;;;;50.30;11.73;;;;;;;2.23;56.32;99709.25;5960422;23;20130;-69
2022/03/24 05:22:02;;;;;;;50.70;13.63;;;;;;;2.34;54.91;99712.97;5981840;23;20032;-69
2022/03/24 05:24:28;;;;;;;56.05;12.57;;;;;;;2.47;54.20;99710.38;5934584;23;20028;-69
2022/03/24 05:26:54;;;;;;;35.83;11.32;;;;;;;2.52;54.22;99704.72;5958311;23;20169;-70
2022/03/24 05:29:21;;;;;;;41.88;11.82;;;;;;;2.64;55.32;99704.81;5935396;23;20027;-71
2022/03/24 05:31:48;;;;;;;56.70;13.65;;;;;;;2.78;55.87;99697.69;5960408;23;20378;-75
2022/03/24 05:34:14;;;;;;;43.38;11.68;;;;;;;2.89;51.68;99692.53;5938150;23;20055;-74
2022/03/24 05:36:40;;;;;;;40.85;14.07;;;;;;;3.17;52.48;99712.88;5960960;23;20028;-70
2022/03/24 05:39:08;;;;;;;56.58;14.55;;;;;;;3.31;53.44;99709.28;5935033;23;20450;-69
2022/03/24 05:41:36;;;;;;;47.30;13.95;;;;;;;4.23;49.26;99705.56;5935816;23;20023;-71
2022/03/24 05:44:02;;;;;;;44.47;14.13;;;;;;;6.26;46.85;99716.13;5963964;23;20027;-75
2022/03/24 05:46:34;;;;;;;39.10;13.38;;;;;;;7.59;42.91;99707.81;5964850;23;20039;-72
2022/03/24 05:49:00;;;;;;;43.35;16.45;;;;;;;8.59;40.60;99707.19;5943143;23;20183;-76
2022/03/24 05:51:46;;;;;;;47.78;14.65;;;;;;;9.38;38.69;99710.72;5968668;23;20050;-74
2022/03/24 05:54:16;;;;;;;47.20;14.02;;;;;;;10.09;37.53;99712.19;5965023;23;20031;-70
2022/03/24 05:56:43;;;;;;;46.22;14.95;;;;;;;10.75;35.89;99701.28;5965793;23;20054;-77
2022/03/24 05:59:09;;;;;;;41.97;14.38;;;;;;;11.30;34.47;99717.44;5945813;23;20482;-73
2022/03/24 06:01:36;;;;;;;45.80;14.98;;;;;;;11.22;33.51;99714.63;5965800;23;20032;-73
2022/03/24 06:04:02;;;;;;;41.00;14.63;;;;;;;11.98;32.83;99715.97;5963125;23;20088;-75
2022/03/24 06:06:28;;;;;;;42.67;15.23;;;;;;;12.04;32.56;99723.47;5938117;23;20482;-73
2022/03/24 06:08:57;;;;;;;46.40;16.45;;;;;;;12.50;32.03;99726.78;5983831;23;20138;-74
2022/03/24 06:11:24;;;;;;;47.13;16.45;;;;;;;12.69;31.53;99726.56;5961269;23;20019;-73
2022/03/24 06:13:50;;;;;;;38.67;16.40;;;;;;;13.09;31.96;99722.28;5961137;23;20524;-74
2022/03/24 06:16:17;;;;;;;39.83;15.85;;;;;;;13.23;29.74;99718.06;5985165;23;20043;-75
2022/03/24 06:18:43;;;;;;;42.40;16.42;;;;;;;13.63;31.65;99717.28;5939165;23;20028;-74
2022/03/24 06:21:09;;;;;;;51.13;15.95;;;;;;;14.02;32.60;99730.19;5984862;23;20095;-74
2022/03/24 06:23:35;;;;;;;53.25;15.48;;;;;;;14.81;30.66;99719.47;5941714;23;20419;-74
2022/03/24 06:26:02;;;;;;;52.78;16.08;;;;;;;15.03;31.93;99721.41;5940817;23;20451;-73
2022/03/24 06:28:28;;;;;;;38.95;14.77;;;;;;;15.29;27.89;99722.97;5985164;23;20466;-74
2022/03/24 06:30:54;;;;;;;32.95;15.20;;;;;;;15.30;29.64;99713.75;5961571;23;20038;-74
2022/03/24 06:33:20;;;;;;;36.05;15.65;;;;;;;15.66;29.06;99717.63;5962366;23;20076;-71
2022/03/24 06:35:48;;;;;;;33.92;15.45;;;;;;;15.96;27.92;99720.44;5961043;23;20077;-72
2022/03/24 06:38:14;;;;;;;45.90;17.55;;;;;;;15.84;27.11;99700.09;5939308;23;20024;-73
2022/03/24 06:40:40;;;;;;;54.95;16.10;;;;;;;16.43;27.99;99715.72;5915860;23;20028;-72
2022/03/24 06:43:07;;;;;;;40.65;16.88;;;;;;;16.92;28.62;99726.91;5937127;23;20028;-73
2022/03/24 06:45:34;;;;;;;34.65;15.88;;;;;;;17.07;26.14;99725.00;5959383;23;20090;-73
2022/03/24 06:48:00;;;;;;;34.85;15.30;;;;;;;17.30;27.34;99729.47;5940030;23;20032;-74
2022/03/24 06:50:27;;;;;;;41.22;15.52;;;;;;;17.67;26.91;99733.03;5940021;23;20072;-75
2022/03/24 06:52:53;;;;;;;42.38;15.75;;;;;;;17.65;25.48;99737.84;5963765;23;20019;-75
2022/03/24 06:55:20;;;;;;;41.67;15.07;;;;;;;17.88;24.78;99734.91;5936859;23;20028;-73
2022/03/24 06:57:46;;;;;;;31.13;15.88;;;;;;;18.02;24.85;99734.84;5984371;23;20442;-74
2022/03/24 07:00:15;;;;;;;34.63;15.93;;;;;;;17.65;24.36;99726.91;5983449;23;20024;-73
2022/03/24 07:02:41;;;;;;;39.20;16.55;;;;;;;17.66;24.20;99728.56;5938092;23;20031;-73
2022/03/24 07:05:08;;;;;;;35.30;16.40;;;;;;;18.54;23.65;99727.25;5959394;23;20055;-72
2022/03/24 07:07:34;;;;;;;36.53;17.35;;;;;;;18.27;23.12;99728.94;5959530;23;20032;-73
2022/03/24 07:10:01;;;;;;;42.10;17.20;;;;;;;18.55;23.30;99732.50;5959724;23;20036;-74
2022/03/24 07:12:26;;;;;;;40.08;17.10;;;;;;;19.16;22.70;99725.44;5963668;23;20377;-73
2022/03/24 07:14:52;;;;;;;38.88;16.50;;;;;;;19.24;22.19;99733.50;5958707;23;20027;-74
2022/03/24 07:17:19;;;;;;;30.50;15.98;;;;;;;19.75;21.71;99738.53;5936844;23;20028;-75
2022/03/24 07:19:46;;;;;;;36.40;17.58;;;;;;;19.65;23.63;99736.19;5936865;23;20035;-73
2022/03/24 07:22:11;;;;;;;34.58;16.92;;;;;;;20.33;21.41;99741.50;5959917;23;20087;-74
2022/03/24 07:24:38;;;;;;;40.30;17.83;;;;;;;20.78;20.25;99735.31;5959126;23;20083;-72
2022/03/24 07:27:04;;;;;;;33.67;17.83;;;;;;;20.33;20.90;99733.28;5937395;23;20023;-74
2022/03/24 07:29:30;;;;;;;36.00;17.00;;;;;;;20.51;21.20;99729.88;5915971;23;20122;-74
2022/03/24 07:31:56;;;;;;;34.60;17.15;;;;;;;21.37;19.45;99737.88;5940908;23;20023;-74
2022/03/24 07:34:22;;;;;;;35.63;16.08;;;;;;;21.78;19.84;99742.06;5937656;23;20064;-74
2022/03/24 07:36:48;;;;;;;41.22;17.50;;;;;;;22.31;18.51;99730.66;5937112;23;20027;-72
2022/03/24 07:39:15;;;;;;;37.78;17.77;;;;;;;22.93;17.62;99743.66;5959567;23;20161;-75
2022/03/24 07:41:41;;;;;;;32.92;17.83;;;;;;;22.45;18.25;99744.31;5959512;23;20027;-74
2022/03/24 07:44:07;;;;;;;32.67;16.95;;;;;;;22.93;18.31;99741.72;5937621;23;20039;-75
2022/03/24 07:46:33;;;;;;;31.73;16.75;;;;;;;23.23;17.57;99739.03;5937341;23;20085;-74
2022/03/24 07:49:00;;;;;;;45.10;18.50;;;;;;;22.34;19.58;99735.72;5936627;23;20141;-75
2022/03/24 07:51:25;;;;;;;32.50;17.90;;;;;;;22.38;20.55;99731.44;5937551;23;20361;-74
2022/03/24 07:53:55;;;;;;;34.03;18.42;;;;;;;23.00;18.45;99738.88;5959751;23;20031;-75
2022/03/24 07:56:24;;;;;;;34.72;16.67;;;;;;;22.47;18.76;99726.47;5981813;23;20088;-74
2022/03/24 07:58:54;;;;;;;33.95;17.63;;;;;;;23.80;17.98;99728.50;5959538;23;20035;-73
2022/03/24 08:01:33;;;;;;;38.30;17.83;;;;;;;24.17;17.22;99725.56;5959168;23;20490;-75
2022/03/24 08:04:03;;;;;;;36.33;17.73;;;;;;;23.74;17.74;99729.44;5936731;23;20042;-75
2022/03/24 08:06:30;;;;;;;28.63;15.55;;;;;;;23.88;16.67;99729.19;5936606;23;20544;-75
2022/03/24 08:08:57;;;;;;;32.08;17.52;;;;;;;23.57;17.90;99722.84;5987304;23;20050;-74
2022/03/24 08:11:23;;;;;;;32.95;15.93;;;;;;;24.36;17.84;99728.22;5940619;23;20028;-75
2022/03/24 08:13:53;;;;;;;30.35;16.40;;;;;;;24.39;16.57;99728.63;5916055;23;20059;-75
2022/03/24 08:16:24;;;;;;;34.30;15.55;;;;;;;24.22;17.69;99736.72;5944409;23;20034;-75
2022/03/24 08:18:51;;;;;;;30.20;16.40;;;;;;;24.32;18.45;99727.03;5962372;23;20045;-76
2022/03/24 08:21:17;;;;;;;30.02;15.55;;;;;;;25.05;18.04;99728.41;5962749;23;20434;-75
2022/03/24 08:23:43;;;;;;;25.60;13.30;;;;;;;24.35;15.41;99730.13;5962161;23;20033;-76
2022/03/24 08:26:09;;;;;;;40.95;18.08;;;;;;;25.10;16.32;99737.69;5961464;23;20028;-76
2022/03/24 08:28:35;;;;;;;29.65;14.52;;;;;;;24.86;16.01;99719.44;5983139;23;20031;-74
2022/03/24 08:31:02;;;;;;;26.92;13.13;;;;;;;25.28;15.52;99722.03;5958966;23;20027;-74
2022/03/24 08:33:28;;;;;;;27.60;12.68;;;;;;;25.16;15.06;99722.91;5936879;23;20229;-75
2022/03/24 08:35:54;;;;;;;23.70;12.38;;;;;;;24.96;14.89;99719.66;5985810;23;20436;-75
2022/03/24 08:38:20;;;;;;;27.60;12.00;;;;;;;25.22;16.56;99730.19;5939365;23;20028;-74
2022/03/24 08:40:46;;;;;;;31.35;12.82;;;;;;;25.05;15.57;99718.22;5938754;23;20355;-74
2022/03/24 08:43:14;;;;;;;22.80;10.95;;;;;;;25.79;15.19;99717.50;5938671;23;20027;-74
2022/03/24 08:45:39;;;;;;;18.70;10.95;;;;;;;25.92;14.73;99722.69;5961617;23;20106;-74
2022/03/24 08:48:06;;;;;;;27.98;11.77;;;;;;;25.32;15.02;99723.19;5984814;23;20484;-72
2022/03/24 08:50:34;;;;;;;19.88;9.93;;;;;;;25.59;14.24;99718.75;5937585;23;20075;-77
2022/03/24 08:53:02;;;;;;;;;;;;;;;26.11;14.76;99724.16;5939781;23;20072;-77
2022/03/24 08:55:28;;;;;;;;;;;;;;;26.72;14.43;99727.06;6008778;23;19922;-76
2022/03/24 08:57:54;;;;;;;20.75;10.75;;;;;;;25.60;14.29;99714.91;6008766;23;20303;-75
2022/03/24 09:00:20;;;;;;;21.60;10.73;;;;;;;24.60;14.90;99720.78;5943366;23;20118;-76
2022/03/24 09:02:48;;;;;;;20.17;10.07;;;;;;;26.03;15.41;99716.22;5990620;23;20075;-70
2022/03/24 09:05:16;;;;;;;20.80;10.15;;;;;;;26.92;13.36;99723.75;5993699;23;20083;-75
2022/03/24 09:07:42;;;;;;;17.08;9.35;;;;;;;26.87;13.25;99723.66;5967811;23;20055;-74
2022/03/24 09:10:10;;;;;;;22.33;10.43;;;;;;;26.20;14.80;99714.31;5970266;23;20036;-68
2022/03/24 09:12:38;;;;;;;19.70;10.00;;;;;;;26.93;14.89;99703.22;5943053;23;20015;-76
2022/03/24 09:15:05;;;;;;;23.77;9.50;;;;;;;26.46;14.24;99717.53;5974981;23;20024;-78
2022/03/24 09:17:32;;;;;;;23.67;9.30;;;;;;;26.42;15.00;99716.31;5951007;23;20039;-78
2022/03/24 09:19:59;;;;;;;26.92;9.65;;;;;;;25.92;14.31;99704.13;6002736;23;20053;-78
2022/03/24 09:22:25;;;;;;;18.55;8.73;;;;;;;25.26;13.07;99714.78;5991656;23;20019;-78
2022/03/24 09:24:51;;;;;;;19.17;7.88;;;;;;;26.47;13.43;99663.75;5976244;23;20043;-78
2022/03/24 09:27:17;;;;;;;17.48;7.82;;;;;;;26.67;12.24;99697.31;5979132;23;20023;-79
2022/03/24 09:29:43;;;;;;;19.42;7.28;;;;;;;26.93;14.49;99725.41;5949803;23;20035;-77
2022/03/24 09:32:12;;;;;;;17.25;10.05;;;;;;;26.66;12.88;99717.84;5969321;23;20032;-78
2022/03/24 09:34:40;;;;;;;31.60;8.70;;;;;;;26.88;13.36;99705.94;5989292;23;20023;-77
2022/03/24 09:37:07;;;;;;;16.02;7.25;;;;;;;26.11;13.12;99713.06;5949859;23;20046;-73
2022/03/24 09:39:33;;;;;;;19.48;10.25;;;;;;;26.15;14.59;99708.69;5953278;23;20484;-80
2022/03/24 09:41:59;;;;;;;14.52;5.75;;;;;;;26.05;13.32;99711.28;5948404;23;20107;-76
2022/03/24 09:44:26;;;;;;;13.25;5.28;;;;;;;27.22;11.85;99703.88;5940295;23;20072;-78
2022/03/24 09:46:52;;;;;;;13.45;5.25;;;;;;;28.29;10.85;99712.47;5917052;23;20091;-74
2022/03/24 09:49:18;;;;;;;16.85;5.63;;;;;;;27.13;12.04;99717.41;5960635;23;20470;-74
2022/03/24 09:51:45;;;;;;;11.80;4.97;;;;;;;26.92;12.18;99710.69;5940282;23;20024;-73
2022/03/24 09:54:11;;;;;;;10.38;3.60;;;;;;;27.88;11.88;99714.91;5986578;23;20065;-75
2022/03/24 09:56:38;;;;;;;11.45;4.30;;;;;;;27.14;13.49;99707.13;5988158;23;20430;-75
2022/03/24 09:59:05;;;;;;;12.50;4.15;;;;;;;26.96;13.25;99712.97;5986928;23;20063;-75
2022/03/24 10:01:31;;;;;;;9.90;3.90;;;;;;;26.23;11.53;99701.91;5940043;23;20023;-76
2022/03/24 10:04:05;;;;;;;10.13;3.92;;;;;;;26.25;11.48;99704.41;5963591;23;20072;-76
2022/03/24 10:06:32;;;;;;;11.32;3.88;;;;;;;26.48;12.63;99704.25;5988515;23;20114;-75
2022/03/24 10:08:59;;;;;;;12.32;3.78;;;;;;;26.54;11.02;99714.31;5988051;23;20023;-77
2022/03/24 10:11:26;;;;;;;11.32;4.55;;;;;;;26.03;11.27;99705.16;5943777;23;20031;-76
2022/03/24 10:13:58;;;;;;;11.27;3.88;;;;;;;26.77;11.14;99706.91;5966386;23;20064;-77
2022/03/24 10:16:33;;;;;;;11.25;4.22;;;;;;;27.27;11.12;99712.25;5990152;23;20123;-77
2022/03/24 10:19:01;;;;;;;12.00;3.85;;;;;;;26.40;11.73;99701.88;5988363;23;20036;-77
2022/03/24 10:21:29;;;;;;;17.58;4.32;;;;;;;26.28;13.43;99709.44;5990910;23;20367;-77
2022/03/24 10:23:57;;;;;;;14.02;4.45;;;;;;;26.26;10.81;99706.09;5943475;23;20027;-78
2022/03/24 10:26:48;;;;;;;11.82;4.85;;;;;;;26.04;12.75;99715.16;5965151;23;20332;-80
2022/03/24 10:29:21;;;;;;;16.42;8.52;;;;;;;25.96;12.43;99707.25;5940552;23;20455;-77
2022/03/24 10:31:52;;;;;;;11.07;4.97;;;;;;;26.00;11.25;99702.03;5987529;23;20027;-77
2022/03/24 10:34:33;;;;;;;11.55;4.57;;;;;;;25.36;12.72;99710.56;5988928;23;20091;-78
2022/03/24 10:37:12;;;;;;;11.23;4.72;;;;;;;25.91;11.48;99712.72;5964835;23;20027;-78
2022/03/24 10:39:40;;;;;;;11.27;4.45;;;;;;;26.15;10.78;99710.63;5962300;23;20031;-78
2022/03/24 10:42:12;;;;;;;10.40;3.83;;;;;;;25.87;12.44;99703.22;5984560;23;20032;-76
2022/03/24 10:45:12;;;;;;;8.25;3.83;;;;;;;25.29;11.58;99712.63;5963243;23;20020;-77
2022/03/24 10:47:50;;;;;;;7.55;3.30;;;;;;;25.70;11.97;99715.06;5984543;23;20426;-77
2022/03/24 10:50:20;;;;;;;7.50;3.38;;;;;;;25.10;11.85;99709.16;5914088;23;20512;-79
2022/03/24 10:52:47;;;;;;;9.10;3.88;;;;;;;24.94;11.64;99705.25;5984362;23;20038;-76
2022/03/24 10:55:21;;;;;;;10.73;4.45;;;;;;;25.09;12.82;99686.19;5960628;23;20466;-77
2022/03/24 10:57:47;;;;;;;10.15;4.20;;;;;;;25.82;11.80;99705.91;5937497;23;20027;-76
2022/03/24 11:00:14;;;;;;;17.85;7.45;;;;;;;25.95;12.62;99705.56;5936524;23;20359;-76
2022/03/24 11:02:40;;;;;;;9.85;3.55;;;;;;;25.37;11.94;99712.22;5914296;23;20084;-75
2022/03/24 11:05:12;;;;;;;12.68;4.57;;;;;;;26.33;11.24;99712.31;5982033;23;20027;-74
2022/03/24 11:07:38;;;;;;;10.73;3.70;;;;;;;26.21;10.94;99715.97;5962115;23;20030;-76
2022/03/24 11:10:12;;;;;;;9.10;3.55;;;;;;;25.71;12.13;99707.63;5981683;23;20038;-75
2022/03/24 11:12:39;;;;;;;8.63;3.67;;;;;;;25.27;11.29;99715.66;5982123;23;20032;-75
2022/03/24 11:15:07;;;;;;;9.40;3.40;;;;;;;24.71;12.82;99706.94;5959239;23;20450;-75
2022/03/24 11:17:35;;;;;;;14.48;3.90;;;;;;;26.46;11.13;99709.19;5981905;23;20076;-75
2022/03/24 11:20:04;;;;;;;11.48;4.00;;;;;;;25.17;12.80;99688.59;5958054;23;20032;-74
2022/03/24 11:22:42;;;;;;;8.50;3.53;;;;;;;25.05;12.82;99709.03;6005695;23;20443;-75